Box Church, Texas
Current Conditions -  °F | °C
As of 12:15 PM on Thursday 30 Oct 2014 (Local Time) from KLXY Reporting Station
Clear Clear  
Wind Chill: 70°   Ceiling: Unl
Heat Index: 70°   Visibility: 10mi
Dew Point: 49°   Wind: 5mph
Humidity: 48%   Direction: 170°S
Pressure: 30.16"   Gusts: NA
Location:  31.5394°N, 96.5518°W
Report Text: KLXY 301715Z AUTO 17004KT 10SM CLR 21/10 A3016 RMK AO2 T02090096
Loading
Personal Weather Stations






























Interactive Weather Map
Tropical Storm Tracking
New forecast layout! Learn more

10-Day Weather Forecast

Advertisements
Track Severe Weather on mobile